createdAt,value
2023-05-25T00:00:49.812Z,15.42
2023-05-25T00:02:06.365Z,15.39
2023-05-25T00:03:10.065Z,15.38
2023-05-25T00:04:16.909Z,15.36
2023-05-25T00:05:20.986Z,15.35
2023-05-25T00:06:26.204Z,15.33
2023-05-25T00:07:29.010Z,15.32
2023-05-25T00:08:31.743Z,15.30
2023-05-25T00:09:34.993Z,15.28
2023-05-25T00:10:37.687Z,15.26
2023-05-25T00:11:40.510Z,15.24
2023-05-25T00:12:43.315Z,15.22
2023-05-25T00:13:46.068Z,15.20
2023-05-25T00:14:48.836Z,15.17
2023-05-25T00:15:51.608Z,15.16
2023-05-25T00:16:54.423Z,15.13
2023-05-25T00:17:57.231Z,15.12
2023-05-25T00:19:03.816Z,15.10
2023-05-25T00:20:07.607Z,15.07
2023-05-25T00:21:10.766Z,15.05
2023-05-25T00:22:13.521Z,15.01
2023-05-25T00:23:16.388Z,14.99
2023-05-25T00:24:19.137Z,14.97
2023-05-25T00:25:21.865Z,14.96
2023-05-25T00:26:24.691Z,14.93
2023-05-25T00:27:27.381Z,14.91
2023-05-25T00:28:30.338Z,14.89
2023-05-25T00:29:33.283Z,14.87
2023-05-25T00:30:36.552Z,14.86
2023-05-25T00:31:39.555Z,14.84
2023-05-25T00:32:42.490Z,14.83
2023-05-25T00:33:45.788Z,14.81
2023-05-25T00:34:48.543Z,14.81
2023-05-25T00:35:52.608Z,14.79
2023-05-25T00:36:55.838Z,14.78
2023-05-25T00:37:58.694Z,14.76
2023-05-25T00:39:01.572Z,14.75
2023-05-25T00:40:07.109Z,14.73
2023-05-25T00:41:09.845Z,14.72
2023-05-25T00:42:12.898Z,14.70
2023-05-25T00:43:16.048Z,14.69
2023-05-25T00:44:21.856Z,14.69
2023-05-25T00:45:24.903Z,14.68
2023-05-25T00:46:28.383Z,14.67
2023-05-25T00:47:32.089Z,14.66
2023-05-25T00:48:35.009Z,14.64
2023-05-25T00:49:37.816Z,14.64
2023-05-25T00:50:41.871Z,14.63
2023-05-25T00:51:46.770Z,14.61
2023-05-25T00:52:50.006Z,14.60
2023-05-25T00:53:52.975Z,14.60
2023-05-25T00:55:00.420Z,14.60
2023-05-25T00:56:07.312Z,14.60
2023-05-25T00:57:10.473Z,14.60
2023-05-25T00:58:13.949Z,14.59
2023-05-25T00:59:33.351Z,14.59
2023-05-25T01:00:37.470Z,14.57
2023-05-25T01:01:40.858Z,14.57
2023-05-25T01:02:45.326Z,14.56
2023-05-25T01:03:53.885Z,14.55
2023-05-25T01:04:59.882Z,14.55
2023-05-25T01:06:07.390Z,14.54
2023-05-25T01:07:11.225Z,14.53
2023-05-25T01:08:14.418Z,14.53
2023-05-25T01:09:19.568Z,14.51
2023-05-25T01:10:22.485Z,14.50
2023-05-25T01:11:27.060Z,14.49
2023-05-25T01:12:30.362Z,14.48
2023-05-25T01:13:34.390Z,14.49
2023-05-25T01:14:39.379Z,14.49
2023-05-25T01:15:42.276Z,14.47
2023-05-25T01:16:45.242Z,14.45
2023-05-25T01:17:54.062Z,14.44
2023-05-25T01:18:56.982Z,14.43
2023-05-25T01:20:09.768Z,14.42
2023-05-25T01:21:22.122Z,14.41
2023-05-25T01:22:32.598Z,14.40
2023-05-25T01:23:36.736Z,14.40
2023-05-25T01:24:40.975Z,14.38
2023-05-25T01:25:46.970Z,14.37
2023-05-25T01:26:59.357Z,14.38
2023-05-25T01:28:25.474Z,14.37
2023-05-25T01:29:28.574Z,14.36
2023-05-25T01:31:53.225Z,14.35
2023-05-25T01:32:56.630Z,14.34
2023-05-25T01:33:59.609Z,14.33
2023-05-25T01:35:04.045Z,14.31
2023-05-25T01:36:06.825Z,14.30
2023-05-25T01:37:09.957Z,14.30
2023-05-25T01:38:13.062Z,14.29
2023-05-25T01:39:15.820Z,14.28
2023-05-25T01:40:18.528Z,14.27
2023-05-25T01:41:21.560Z,14.24
2023-05-25T01:42:24.265Z,14.23
2023-05-25T01:43:26.986Z,14.23
2023-05-25T01:44:30.216Z,14.21
2023-05-25T01:45:33.238Z,14.19
2023-05-25T01:46:39.850Z,14.18
2023-05-25T01:48:03.540Z,14.16
2023-05-25T01:49:17.206Z,14.13
2023-05-25T01:50:23.306Z,14.12
2023-05-25T01:51:32.192Z,14.11
2023-05-25T01:52:51.511Z,14.11
2023-05-25T01:53:58.191Z,14.11
2023-05-25T01:55:03.624Z,14.11
2023-05-25T01:56:08.812Z,14.12
2023-05-25T01:57:13.415Z,14.12
2023-05-25T01:58:17.089Z,14.12
2023-05-25T01:59:21.682Z,14.12
2023-05-25T02:00:31.421Z,14.11
2023-05-25T02:01:34.745Z,14.11
2023-05-25T02:02:38.314Z,14.12
2023-05-25T02:03:41.578Z,14.13
2023-05-25T02:04:45.660Z,14.12
2023-05-25T02:05:48.586Z,14.12
2023-05-25T02:06:54.373Z,14.10
2023-05-25T02:07:57.160Z,14.07
2023-05-25T02:08:59.945Z,14.05
2023-05-25T02:10:02.936Z,14.05
2023-05-25T02:11:05.685Z,14.05
2023-05-25T02:12:08.539Z,14.03
2023-05-25T02:13:11.368Z,14.03
2023-05-25T02:14:14.532Z,14.02
2023-05-25T02:15:18.118Z,14.02
2023-05-25T02:16:22.268Z,14.01
2023-05-25T02:17:28.088Z,14.00
2023-05-25T02:18:30.892Z,13.98
2023-05-25T02:19:33.661Z,13.97
2023-05-25T02:20:36.997Z,13.98
2023-05-25T02:21:39.767Z,13.98
2023-05-25T02:22:42.477Z,13.98
2023-05-25T02:23:45.201Z,13.98
2023-05-25T02:24:48.091Z,13.97
2023-05-25T02:25:51.924Z,13.96
2023-05-25T02:26:54.868Z,13.96
2023-05-25T02:27:58.253Z,13.98
2023-05-25T02:29:03.449Z,13.98
2023-05-25T02:30:06.597Z,13.98
2023-05-25T02:31:09.360Z,13.98
2023-05-25T02:32:12.202Z,13.98
2023-05-25T02:33:15.036Z,13.96
2023-05-25T02:34:17.786Z,13.96
2023-05-25T02:35:21.858Z,13.95
2023-05-25T02:36:24.617Z,13.93
2023-05-25T02:37:27.486Z,13.92
2023-05-25T02:38:30.773Z,13.92
2023-05-25T02:39:34.176Z,13.91
2023-05-25T02:40:36.978Z,13.90
2023-05-25T02:41:39.770Z,13.90
2023-05-25T02:42:43.294Z,13.89
2023-05-25T02:43:46.254Z,13.87
2023-05-25T02:44:49.048Z,13.87
2023-05-25T02:45:51.869Z,13.86
2023-05-25T02:46:54.661Z,13.86
2023-05-25T02:47:57.441Z,13.86
2023-05-25T02:49:00.692Z,13.84
2023-05-25T02:50:04.289Z,13.83
2023-05-25T02:51:08.185Z,13.83
2023-05-25T02:52:11.104Z,13.84
2023-05-25T02:53:14.015Z,13.85
2023-05-25T02:54:17.268Z,13.86
2023-05-25T02:55:20.458Z,13.86
2023-05-25T02:56:23.509Z,13.85
2023-05-25T02:57:27.004Z,13.86
2023-05-25T02:58:29.919Z,13.85
2023-05-25T03:00:01.668Z,13.84
2023-05-25T03:01:05.903Z,13.84
2023-05-25T03:02:10.277Z,13.83
2023-05-25T03:03:14.095Z,13.82
2023-05-25T03:04:18.108Z,13.82
2023-05-25T03:05:20.891Z,13.82
2023-05-25T03:06:26.177Z,13.82
2023-05-25T03:07:34.526Z,13.82
2023-05-25T03:08:37.488Z,13.81
2023-05-25T03:09:40.426Z,13.81
2023-05-25T03:10:43.931Z,13.80
2023-05-25T03:11:47.114Z,13.81
2023-05-25T03:12:52.417Z,13.80
2023-05-25T03:13:55.317Z,13.82
2023-05-25T03:14:58.411Z,13.82
2023-05-25T03:16:01.875Z,13.82
2023-05-25T03:17:04.982Z,13.83
2023-05-25T03:18:07.880Z,13.84
2023-05-25T03:19:13.691Z,13.85
2023-05-25T03:20:16.910Z,13.87
2023-05-25T03:21:25.089Z,13.87
2023-05-25T03:22:29.789Z,13.88
2023-05-25T03:23:32.532Z,13.88
2023-05-25T03:24:41.711Z,13.89
2023-05-25T03:25:45.308Z,13.90
2023-05-25T03:26:48.347Z,13.91
2023-05-25T03:27:54.574Z,13.91
2023-05-25T03:28:57.408Z,13.91
2023-05-25T03:30:00.307Z,13.93
2023-05-25T03:31:04.622Z,13.93
2023-05-25T03:32:07.937Z,13.93
2023-05-25T03:33:13.842Z,13.93
2023-05-25T03:34:20.071Z,13.93
2023-05-25T03:35:22.915Z,13.94
2023-05-25T03:36:28.601Z,13.96
2023-05-25T03:37:31.497Z,13.97
2023-05-25T03:38:35.405Z,13.98
2023-05-25T03:39:38.474Z,13.99
2023-05-25T03:40:41.421Z,14.02
2023-05-25T03:41:44.738Z,14.03
2023-05-25T03:42:47.697Z,14.04
2023-05-25T03:43:50.395Z,14.06
2023-05-25T03:44:53.169Z,14.07
2023-05-25T03:45:55.969Z,14.09
2023-05-25T03:46:58.862Z,14.10
2023-05-25T03:48:01.735Z,14.10
2023-05-25T03:49:04.661Z,14.09
2023-05-25T03:50:07.799Z,14.08
2023-05-25T03:51:10.550Z,14.06
2023-05-25T03:52:13.441Z,14.05
2023-05-25T03:53:17.698Z,14.04
2023-05-25T03:54:21.190Z,14.05
2023-05-25T03:55:24.182Z,14.05
2023-05-25T03:56:27.333Z,14.04
2023-05-25T03:57:30.092Z,14.04
2023-05-25T03:58:34.051Z,14.04
2023-05-25T03:59:36.821Z,14.05
2023-05-25T04:00:39.599Z,14.06
2023-05-25T04:01:42.419Z,14.08
2023-05-25T04:02:45.960Z,14.10
2023-05-25T04:03:49.845Z,14.11
2023-05-25T04:04:53.665Z,14.12
2023-05-25T04:05:58.258Z,14.13
2023-05-25T04:07:01.680Z,14.15
2023-05-25T04:08:08.573Z,14.16
2023-05-25T04:09:11.935Z,14.18
2023-05-25T04:10:14.656Z,14.18
2023-05-25T04:11:17.961Z,14.20
2023-05-25T04:12:20.693Z,14.22
2023-05-25T04:13:23.686Z,14.24
2023-05-25T04:14:26.847Z,14.26
2023-05-25T04:15:30.513Z,14.28
2023-05-25T04:16:45.912Z,14.28
2023-05-25T04:17:50.427Z,14.30
2023-05-25T04:18:53.378Z,14.31
2023-05-25T04:19:56.825Z,14.33
2023-05-25T04:20:59.655Z,14.36
2023-05-25T04:22:04.700Z,14.39
2023-05-25T04:23:07.473Z,14.42
2023-05-25T04:24:11.406Z,14.45
2023-05-25T04:25:14.326Z,14.49
2023-05-25T04:26:17.134Z,14.52
2023-05-25T04:27:22.238Z,14.56
2023-05-25T04:28:25.045Z,14.59
2023-05-25T04:29:32.038Z,14.62
2023-05-25T04:30:56.991Z,14.67
2023-05-25T04:32:30.097Z,14.73
2023-05-25T04:33:51.723Z,14.78
2023-05-25T04:35:03.335Z,14.82
2023-05-25T04:36:14.712Z,14.86
2023-05-25T04:37:17.525Z,14.90
2023-05-25T04:38:21.052Z,14.93
2023-05-25T04:39:23.806Z,14.96
2023-05-25T04:40:30.129Z,15.00
2023-05-25T04:41:33.957Z,15.03
2023-05-25T04:42:40.709Z,15.07
2023-05-25T04:44:04.679Z,15.10
2023-05-25T04:45:10.555Z,15.13
2023-05-25T04:46:17.126Z,15.15
2023-05-25T04:47:20.186Z,15.18
2023-05-25T04:48:24.563Z,15.20
2023-05-25T04:49:27.661Z,15.23
2023-05-25T04:50:30.452Z,15.25
2023-05-25T04:51:33.480Z,15.27
2023-05-25T04:52:36.653Z,15.30
2023-05-25T04:53:39.466Z,15.33
2023-05-25T04:54:43.496Z,15.37
2023-05-25T04:55:46.845Z,15.40
2023-05-25T04:56:49.929Z,15.42
2023-05-25T04:57:53.335Z,15.45
2023-05-25T04:58:56.091Z,15.50
2023-05-25T04:59:59.395Z,15.54
2023-05-25T05:01:02.295Z,15.57
2023-05-25T05:02:05.470Z,15.57
2023-05-25T05:03:08.362Z,15.59
2023-05-25T05:04:11.261Z,15.61
2023-05-25T05:05:14.353Z,15.66
2023-05-25T05:06:17.920Z,15.72
2023-05-25T05:07:22.983Z,15.77
2023-05-25T05:08:25.932Z,15.82
2023-05-25T05:09:29.235Z,15.87
2023-05-25T05:10:34.410Z,15.93
2023-05-25T05:11:37.317Z,15.98
2023-05-25T05:12:41.752Z,16.04
2023-05-25T05:13:45.238Z,16.07
2023-05-25T05:14:47.996Z,16.09
2023-05-25T05:15:50.999Z,16.11
2023-05-25T05:16:53.927Z,16.14
2023-05-25T05:17:57.170Z,16.18
2023-05-25T05:19:03.584Z,16.23
2023-05-25T05:20:07.460Z,16.26
2023-05-25T05:21:10.627Z,16.31
2023-05-25T05:22:15.513Z,16.34
2023-05-25T05:23:18.926Z,16.39
2023-05-25T05:24:21.685Z,16.43
2023-05-25T05:25:24.461Z,16.48
2023-05-25T05:26:27.810Z,16.53
2023-05-25T05:27:30.825Z,16.60
2023-05-25T05:28:49.553Z,16.69
2023-05-25T05:29:53.402Z,16.76
2023-05-25T05:30:56.526Z,16.82
2023-05-25T05:31:59.349Z,16.87
2023-05-25T05:33:02.326Z,16.91
2023-05-25T05:34:10.124Z,16.95
2023-05-25T05:35:12.978Z,16.99
2023-05-25T05:36:21.212Z,17.04
2023-05-25T05:37:23.975Z,17.08
2023-05-25T05:38:27.548Z,17.12
2023-05-25T05:39:30.292Z,17.17
2023-05-25T05:40:33.409Z,17.21
2023-05-25T05:41:36.396Z,17.25
2023-05-25T05:42:39.207Z,17.28
2023-05-25T05:43:42.444Z,17.33
2023-05-25T05:44:45.253Z,17.38
2023-05-25T05:45:48.048Z,17.43
2023-05-25T05:46:51.097Z,17.47
2023-05-25T05:47:54.043Z,17.51
2023-05-25T05:48:57.148Z,17.54
2023-05-25T05:49:59.893Z,17.56
2023-05-25T05:51:05.868Z,17.61
2023-05-25T05:52:09.886Z,17.66
2023-05-25T05:53:12.811Z,17.69
2023-05-25T05:54:15.602Z,17.73
2023-05-25T05:55:18.593Z,17.77
2023-05-25T05:56:21.980Z,17.79
2023-05-25T05:57:24.673Z,17.82
2023-05-25T05:58:27.435Z,17.82
2023-05-25T05:59:30.439Z,17.83
2023-05-25T06:00:33.971Z,17.87
2023-05-25T06:01:36.777Z,17.90
2023-05-25T06:02:41.673Z,17.93
2023-05-25T06:03:45.781Z,17.97
2023-05-25T06:04:48.547Z,18.00
2023-05-25T06:05:51.380Z,18.04
2023-05-25T06:06:55.482Z,18.08
2023-05-25T06:07:58.173Z,18.12
2023-05-25T06:09:03.568Z,18.16
2023-05-25T06:10:06.624Z,18.19
2023-05-25T06:11:09.469Z,18.23
2023-05-25T06:12:12.204Z,18.26
2023-05-25T06:13:15.088Z,18.32
2023-05-25T06:14:18.151Z,18.37
2023-05-25T06:15:21.059Z,18.42
2023-05-25T06:16:25.373Z,18.47
2023-05-25T06:17:28.324Z,18.52
2023-05-25T06:18:31.185Z,18.58
2023-05-25T06:19:34.184Z,18.64
2023-05-25T06:20:36.949Z,18.68
2023-05-25T06:21:39.940Z,18.72
2023-05-25T06:22:42.644Z,18.77
2023-05-25T06:23:45.788Z,18.83
2023-05-25T06:24:48.523Z,18.87
2023-05-25T06:25:52.451Z,18.90
2023-05-25T06:26:55.199Z,18.94
2023-05-25T06:27:58.098Z,18.99
2023-05-25T06:29:00.892Z,19.03
2023-05-25T06:30:03.845Z,19.09
2023-05-25T06:31:06.710Z,19.12
2023-05-25T06:32:11.052Z,19.15
2023-05-25T06:33:14.249Z,19.19
2023-05-25T06:34:18.070Z,19.23
2023-05-25T06:35:21.601Z,19.29
2023-05-25T06:36:27.479Z,19.34
2023-05-25T06:37:35.257Z,19.38
2023-05-25T06:38:38.917Z,19.43
2023-05-25T06:39:43.550Z,19.48
2023-05-25T06:40:46.613Z,19.53
2023-05-25T06:41:51.202Z,19.58
2023-05-25T06:43:02.470Z,19.63
2023-05-25T06:44:19.610Z,19.68
2023-05-25T06:45:23.221Z,19.72
2023-05-25T06:46:26.050Z,19.75
2023-05-25T06:47:29.997Z,19.76
2023-05-25T06:48:33.941Z,19.76
2023-05-25T06:49:36.752Z,19.76
2023-05-25T06:50:40.318Z,19.77
2023-05-25T06:51:42.987Z,19.78
2023-05-25T06:52:46.856Z,19.77
2023-05-25T06:53:49.879Z,19.77
2023-05-25T06:54:52.639Z,19.77
2023-05-25T06:55:55.410Z,19.78
2023-05-25T06:56:58.076Z,19.80
2023-05-25T06:58:01.048Z,19.84
2023-05-25T06:59:03.747Z,19.89
2023-05-25T07:00:07.953Z,19.93
2023-05-25T07:01:10.819Z,19.96
2023-05-25T07:02:13.700Z,19.98
2023-05-25T07:03:16.739Z,20.00
2023-05-25T07:04:19.616Z,20.00
2023-05-25T07:05:22.392Z,20.01
2023-05-25T07:06:25.498Z,20.02
2023-05-25T07:07:28.255Z,20.03
2023-05-25T07:08:31.598Z,20.03
2023-05-25T07:09:34.423Z,20.03
2023-05-25T07:10:37.271Z,20.05
2023-05-25T07:11:39.941Z,20.07
2023-05-25T07:12:42.652Z,20.10
2023-05-25T07:13:45.480Z,20.12
2023-05-25T07:14:48.514Z,20.16
2023-05-25T07:15:52.732Z,20.20
2023-05-25T07:16:55.600Z,20.21
2023-05-25T07:17:58.741Z,20.21
2023-05-25T07:19:01.652Z,20.22
2023-05-25T07:20:06.261Z,20.23
2023-05-25T07:21:11.865Z,20.26
2023-05-25T07:22:17.015Z,20.29
2023-05-25T07:23:19.725Z,20.31
2023-05-25T07:24:22.465Z,20.31
2023-05-25T07:25:25.211Z,20.30
2023-05-25T07:26:28.284Z,20.29
2023-05-25T07:27:31.664Z,20.31
2023-05-25T07:28:34.366Z,20.29
2023-05-25T07:29:37.146Z,20.28
2023-05-25T07:30:40.806Z,20.25
2023-05-25T07:31:43.661Z,20.22
2023-05-25T07:32:46.551Z,20.14
2023-05-25T07:33:49.516Z,20.07
2023-05-25T07:34:52.357Z,20.02
2023-05-25T07:35:55.174Z,19.99
2023-05-25T07:36:57.926Z,19.96
2023-05-25T07:38:01.308Z,19.97
2023-05-25T07:39:04.196Z,19.98
2023-05-25T07:40:07.218Z,19.99
2023-05-25T07:41:09.945Z,20.00
2023-05-25T07:42:12.758Z,20.04
2023-05-25T07:43:15.541Z,20.11
2023-05-25T07:44:18.231Z,20.18
2023-05-25T07:45:21.426Z,20.26
2023-05-25T07:46:25.857Z,20.33
2023-05-25T07:47:28.983Z,20.40
2023-05-25T07:48:31.910Z,20.44
2023-05-25T07:49:34.952Z,20.48
2023-05-25T07:50:37.665Z,20.54
2023-05-25T07:51:40.485Z,20.59
2023-05-25T07:52:43.378Z,20.65
2023-05-25T07:53:46.158Z,20.68
2023-05-25T07:54:48.995Z,20.69
2023-05-25T07:55:51.995Z,20.71
2023-05-25T07:56:54.825Z,20.73
2023-05-25T07:57:57.510Z,20.74
2023-05-25T07:59:01.035Z,20.74
2023-05-25T08:00:11.063Z,20.73
2023-05-25T08:01:17.404Z,20.72
2023-05-25T08:02:20.196Z,20.74
2023-05-25T08:03:31.667Z,20.76
2023-05-25T08:04:43.125Z,20.78
2023-05-25T08:05:46.185Z,20.80
2023-05-25T08:06:49.633Z,20.81
2023-05-25T08:07:53.657Z,20.84
2023-05-25T08:08:56.386Z,20.90
2023-05-25T08:09:59.213Z,20.94
2023-05-25T08:11:01.983Z,20.96
2023-05-25T08:12:27.177Z,20.99
2023-05-25T08:13:27.950Z,21.02
2023-05-25T08:14:30.703Z,21.04
2023-05-25T08:15:33.454Z,21.09
2023-05-25T08:16:36.821Z,21.19
2023-05-25T08:17:39.880Z,21.28
2023-05-25T08:18:46.559Z,21.37
2023-05-25T08:19:49.277Z,21.46
2023-05-25T08:20:52.095Z,21.57
2023-05-25T08:21:54.850Z,21.67
2023-05-25T08:22:59.224Z,21.76
2023-05-25T08:24:04.257Z,21.83
2023-05-25T08:25:08.114Z,21.88
2023-05-25T08:26:29.097Z,21.89
2023-05-25T08:27:36.026Z,21.95
2023-05-25T08:28:39.411Z,21.99
2023-05-25T08:29:42.228Z,22.03
2023-05-25T08:30:45.674Z,22.09
2023-05-25T08:31:49.866Z,22.14
2023-05-25T08:32:52.676Z,22.18
2023-05-25T08:33:55.666Z,22.19
2023-05-25T08:34:58.376Z,22.22
2023-05-25T08:36:01.102Z,22.25
2023-05-25T08:37:03.887Z,22.27
2023-05-25T08:38:06.732Z,22.27
2023-05-25T08:39:10.304Z,22.27
2023-05-25T08:40:15.223Z,22.27
2023-05-25T08:41:19.719Z,22.28
2023-05-25T08:42:23.627Z,22.28
2023-05-25T08:43:26.459Z,22.28
2023-05-25T08:44:29.495Z,22.26
2023-05-25T08:45:49.288Z,22.24
2023-05-25T08:46:52.876Z,22.22
2023-05-25T08:47:59.236Z,22.23
2023-05-25T08:49:09.122Z,22.24
2023-05-25T08:50:12.575Z,22.24
2023-05-25T08:51:16.416Z,22.26
2023-05-25T08:52:21.868Z,22.27
2023-05-25T08:53:26.532Z,22.27
2023-05-25T08:54:30.237Z,22.26
2023-05-25T08:55:36.116Z,22.21
2023-05-25T08:56:52.704Z,22.17
2023-05-25T08:58:00.080Z,22.16
2023-05-25T08:59:07.272Z,22.16
2023-05-25T09:00:13.069Z,22.19
2023-05-25T09:01:18.579Z,22.24
2023-05-25T09:02:26.900Z,22.26
2023-05-25T09:03:30.975Z,22.30
2023-05-25T09:04:34.499Z,22.35
2023-05-25T09:05:38.140Z,22.41
2023-05-25T09:06:41.161Z,22.45
2023-05-25T09:07:44.295Z,22.51
2023-05-25T09:08:47.083Z,22.59
2023-05-25T09:09:50.281Z,22.64
2023-05-25T09:10:53.838Z,22.68
2023-05-25T09:11:57.685Z,22.72
2023-05-25T09:13:09.689Z,22.75
2023-05-25T09:14:23.873Z,22.76
2023-05-25T09:15:26.782Z,22.79
2023-05-25T09:16:31.167Z,22.80
2023-05-25T09:17:37.397Z,22.80
2023-05-25T09:18:41.140Z,22.83
2023-05-25T09:19:44.324Z,22.89
2023-05-25T09:20:47.862Z,22.93
2023-05-25T09:21:53.081Z,22.93
2023-05-25T09:23:03.337Z,22.95
2023-05-25T09:24:06.300Z,22.95
2023-05-25T09:25:10.523Z,22.95
2023-05-25T09:26:13.389Z,22.95
2023-05-25T09:27:17.714Z,22.98
2023-05-25T09:29:26.717Z,23.01
2023-05-25T09:30:32.876Z,23.02
2023-05-25T09:31:38.584Z,23.02
2023-05-25T09:32:41.987Z,23.02
2023-05-25T09:33:46.014Z,23.00
2023-05-25T09:34:49.568Z,22.97
2023-05-25T09:35:52.533Z,22.94
2023-05-25T09:36:56.981Z,22.93
2023-05-25T09:38:00.111Z,22.93
2023-05-25T09:39:03.207Z,22.93
2023-05-25T09:40:06.713Z,22.88
2023-05-25T09:41:09.431Z,22.82
2023-05-25T09:42:12.438Z,22.72
2023-05-25T09:43:24.937Z,22.63
2023-05-25T09:44:28.235Z,22.52
2023-05-25T09:45:31.635Z,22.36
2023-05-25T09:46:37.763Z,22.26
2023-05-25T09:47:40.685Z,22.23
2023-05-25T09:48:43.690Z,22.23
2023-05-25T09:49:47.848Z,22.29
2023-05-25T09:50:51.362Z,22.34
2023-05-25T09:51:54.314Z,22.37
2023-05-25T09:52:59.253Z,22.37
2023-05-25T09:54:02.721Z,22.39
2023-05-25T09:55:09.360Z,22.43
2023-05-25T09:56:12.698Z,22.48
2023-05-25T09:57:16.840Z,22.52
2023-05-25T09:58:19.506Z,22.54
2023-05-25T09:59:22.858Z,22.50
2023-05-25T10:00:25.910Z,22.44
2023-05-25T10:01:28.929Z,22.42
2023-05-25T10:02:32.218Z,22.45
2023-05-25T10:03:34.997Z,22.51
2023-05-25T10:04:38.015Z,22.58
2023-05-25T10:05:40.891Z,22.64
2023-05-25T10:06:45.858Z,22.67
2023-05-25T10:07:49.738Z,22.73
2023-05-25T10:08:53.744Z,22.80
2023-05-25T10:10:02.083Z,22.87
2023-05-25T10:11:05.136Z,22.91
2023-05-25T10:12:08.776Z,22.96
2023-05-25T10:13:12.801Z,23.03
2023-05-25T10:14:20.058Z,23.12
2023-05-25T10:15:23.208Z,23.22
2023-05-25T10:16:28.026Z,23.32
2023-05-25T10:17:32.673Z,23.43
2023-05-25T10:18:37.653Z,23.45
2023-05-25T10:19:43.186Z,23.49
2023-05-25T10:20:48.070Z,23.56
2023-05-25T10:22:13.863Z,23.59
2023-05-25T10:23:20.364Z,23.69
2023-05-25T10:24:35.042Z,23.76
2023-05-25T10:25:44.422Z,23.82
2023-05-25T10:26:49.168Z,23.77
2023-05-25T10:28:00.033Z,23.68
2023-05-25T10:29:04.650Z,23.57
2023-05-25T10:30:08.923Z,23.53
2023-05-25T10:31:12.406Z,23.49
2023-05-25T10:32:16.466Z,23.46
2023-05-25T10:33:20.192Z,23.48
2023-05-25T10:34:23.154Z,23.51
2023-05-25T10:35:26.257Z,23.53
2023-05-25T10:36:30.793Z,23.52
2023-05-25T10:37:34.297Z,23.53
2023-05-25T10:38:39.296Z,23.55
2023-05-25T10:39:44.138Z,23.59
2023-05-25T10:40:51.368Z,23.60
2023-05-25T10:41:54.336Z,23.62
2023-05-25T10:42:57.134Z,23.66
2023-05-25T10:44:00.438Z,23.69
2023-05-25T10:45:07.459Z,23.71
2023-05-25T10:46:10.920Z,23.75
2023-05-25T10:47:15.218Z,23.82
2023-05-25T10:48:18.048Z,23.91
2023-05-25T10:49:31.715Z,24.01
2023-05-25T10:50:35.278Z,24.12
2023-05-25T10:51:38.808Z,24.19
2023-05-25T10:52:41.637Z,24.21
2023-05-25T10:53:45.925Z,24.20
2023-05-25T10:54:48.797Z,24.16
2023-05-25T10:55:51.956Z,24.13
2023-05-25T10:57:10.348Z,24.14
2023-05-25T10:58:13.937Z,24.23
2023-05-25T10:59:25.618Z,24.28
2023-05-25T11:00:30.846Z,24.26
2023-05-25T11:01:49.741Z,24.25
2023-05-25T11:02:56.147Z,24.25
2023-05-25T11:04:11.469Z,24.19
2023-05-25T11:05:26.613Z,24.08
2023-05-25T11:06:49.849Z,24.06
2023-05-25T11:07:53.058Z,24.07
2023-05-25T11:08:59.497Z,24.14
2023-05-25T11:10:03.410Z,24.22
2023-05-25T11:11:06.153Z,24.26
2023-05-25T11:12:09.376Z,24.25
2023-05-25T11:13:30.633Z,24.25
2023-05-25T11:14:36.149Z,24.21
2023-05-25T11:15:40.128Z,24.19
2023-05-25T11:16:43.210Z,24.14
2023-05-25T11:18:00.142Z,24.08
2023-05-25T11:19:03.116Z,24.06
2023-05-25T11:20:06.350Z,24.08
2023-05-25T11:21:18.729Z,24.14
2023-05-25T11:22:37.674Z,24.24
2023-05-25T11:23:55.953Z,24.40
2023-05-25T11:25:00.037Z,24.64
2023-05-25T11:26:06.784Z,24.67
2023-05-25T11:27:09.715Z,24.58
2023-05-25T11:28:12.996Z,24.39
2023-05-25T11:29:16.391Z,24.20
2023-05-25T11:30:19.303Z,24.03
2023-05-25T11:31:27.461Z,23.89
2023-05-25T11:32:30.715Z,23.72
2023-05-25T11:33:33.625Z,23.65
2023-05-25T11:34:36.579Z,23.70
2023-05-25T11:35:39.998Z,23.76
2023-05-25T11:36:42.839Z,23.82
2023-05-25T11:37:50.764Z,23.89
2023-05-25T11:39:04.763Z,24.04
2023-05-25T11:40:11.992Z,24.37
2023-05-25T11:41:32.986Z,24.65
2023-05-25T11:42:36.154Z,24.94
2023-05-25T11:43:40.343Z,25.09
2023-05-25T11:44:43.536Z,25.17
2023-05-25T11:45:55.321Z,25.22
2023-05-25T11:47:01.707Z,25.39
2023-05-25T11:48:05.274Z,25.58
2023-05-25T11:49:08.355Z,25.68
2023-05-25T11:50:17.437Z,25.64
2023-05-25T11:51:24.449Z,25.61
2023-05-25T11:52:27.801Z,25.55
2023-05-25T11:53:32.474Z,25.56
2023-05-25T11:54:35.861Z,25.62
2023-05-25T11:55:41.064Z,25.59
2023-05-25T11:56:43.851Z,25.47
2023-05-25T11:57:46.842Z,25.31
2023-05-25T11:58:50.661Z,25.11
2023-05-25T11:59:54.431Z,24.92
2023-05-25T12:01:12.074Z,24.73
2023-05-25T12:02:14.862Z,24.42
2023-05-25T12:03:31.423Z,24.20
2023-05-25T12:04:34.817Z,24.09
2023-05-25T12:05:38.485Z,24.03
2023-05-25T12:06:41.392Z,23.99
2023-05-25T12:07:46.686Z,23.97
2023-05-25T12:08:49.535Z,23.92
2023-05-25T12:10:05.201Z,23.84
2023-05-25T12:11:09.102Z,23.82
2023-05-25T12:12:12.029Z,23.75
2023-05-25T12:13:14.896Z,23.66
2023-05-25T12:14:17.716Z,23.50
2023-05-25T12:15:24.242Z,23.34
2023-05-25T12:16:27.250Z,23.18
2023-05-25T12:17:30.074Z,23.04
2023-05-25T12:18:32.942Z,22.88
2023-05-25T12:19:36.449Z,22.75
2023-05-25T12:20:41.378Z,22.63
2023-05-25T12:21:44.838Z,22.56
2023-05-25T12:22:47.941Z,22.53
2023-05-25T12:23:51.386Z,22.40
2023-05-25T12:24:54.109Z,22.21
2023-05-25T12:26:09.370Z,21.99
2023-05-25T12:27:18.674Z,21.79
2023-05-25T12:28:21.585Z,21.68
2023-05-25T12:29:25.837Z,21.60
2023-05-25T12:30:28.594Z,21.51
2023-05-25T12:31:32.895Z,21.42
2023-05-25T12:32:50.837Z,21.28
2023-05-25T12:34:10.702Z,21.13
2023-05-25T12:35:13.472Z,21.00
2023-05-25T12:36:16.339Z,20.96
2023-05-25T12:37:20.174Z,20.93
2023-05-25T12:38:23.376Z,20.86
2023-05-25T12:39:29.200Z,20.75
2023-05-25T12:40:32.042Z,20.67
2023-05-25T12:41:54.744Z,20.64
2023-05-25T12:42:58.113Z,20.55
2023-05-25T12:44:00.958Z,20.50
2023-05-25T12:45:07.280Z,20.46
2023-05-25T12:46:10.327Z,20.39
2023-05-25T12:47:17.487Z,20.34
2023-05-25T12:48:26.263Z,20.30
2023-05-25T12:49:28.994Z,20.28
2023-05-25T12:50:32.931Z,20.32
2023-05-25T12:51:39.280Z,20.38
2023-05-25T12:52:43.920Z,20.46
2023-05-25T12:53:47.433Z,20.53
2023-05-25T12:54:50.212Z,20.58
2023-05-25T12:56:03.067Z,20.59
2023-05-25T12:57:06.780Z,20.62
2023-05-25T12:58:25.607Z,20.66
2023-05-25T12:59:31.705Z,20.72
2023-05-25T13:00:35.596Z,20.78
2023-05-25T13:01:38.429Z,20.85
2023-05-25T13:02:44.598Z,20.91
2023-05-25T13:03:47.407Z,20.92
2023-05-25T13:04:50.492Z,20.91
2023-05-25T13:05:59.723Z,20.91
2023-05-25T13:07:02.703Z,20.92
2023-05-25T13:08:06.471Z,20.92
2023-05-25T13:09:09.190Z,20.89
2023-05-25T13:10:17.766Z,20.91
2023-05-25T13:11:20.570Z,20.94
2023-05-25T13:12:23.342Z,21.01
2023-05-25T13:13:27.153Z,21.21
2023-05-25T13:14:30.496Z,21.41
2023-05-25T13:15:33.417Z,21.57
2023-05-25T13:16:36.388Z,21.67
2023-05-25T13:17:41.115Z,21.77
2023-05-25T13:18:43.944Z,21.85
2023-05-25T13:19:46.736Z,21.91
2023-05-25T13:20:51.289Z,21.96
2023-05-25T13:21:56.762Z,21.96
2023-05-25T13:22:59.749Z,21.96
2023-05-25T13:24:02.504Z,22.00
2023-05-25T13:25:05.489Z,22.07
2023-05-25T13:26:08.259Z,22.14
2023-05-25T13:27:11.906Z,22.21
2023-05-25T13:28:14.666Z,22.27
2023-05-25T13:29:17.925Z,22.30
2023-05-25T13:30:22.096Z,22.29
2023-05-25T13:31:25.153Z,22.25
2023-05-25T13:32:31.406Z,22.27
2023-05-25T13:33:35.695Z,22.32
2023-05-25T13:34:38.591Z,22.35
2023-05-25T13:35:46.111Z,22.44
2023-05-25T13:36:49.030Z,22.58
2023-05-25T13:37:51.809Z,22.69
2023-05-25T13:38:54.825Z,22.84
2023-05-25T13:39:58.427Z,23.01
2023-05-25T13:41:01.812Z,23.28
2023-05-25T13:42:04.651Z,23.64
2023-05-25T13:43:07.375Z,24.03
2023-05-25T13:44:11.201Z,24.41
2023-05-25T13:45:14.138Z,24.63
2023-05-25T13:46:32.866Z,24.91
2023-05-25T13:47:37.026Z,25.48
2023-05-25T13:48:40.742Z,26.01
2023-05-25T13:49:43.767Z,26.51
2023-05-25T13:50:46.729Z,26.99
2023-05-25T13:51:49.561Z,27.53
2023-05-25T13:52:52.221Z,28.05
2023-05-25T13:53:54.933Z,28.47
2023-05-25T13:54:57.617Z,28.71
2023-05-25T13:56:00.505Z,28.91
2023-05-25T13:57:03.718Z,29.08